createdAt,value
2018-07-15T00:00:41.556Z,46.15
2018-07-15T00:01:41.512Z,46.15
2018-07-15T00:02:41.467Z,46.32
2018-07-15T00:03:41.424Z,45.86
2018-07-15T00:04:41.380Z,45.86
2018-07-15T00:05:41.335Z,46.15
2018-07-15T00:06:41.291Z,46.12
2018-07-15T00:07:41.247Z,46.05
2018-07-15T00:08:41.210Z,46.05
2018-07-15T00:09:41.158Z,46.15
2018-07-15T00:10:41.118Z,46.03
2018-07-15T00:11:41.070Z,46.15
2018-07-15T00:12:41.027Z,46.12
2018-07-15T00:13:40.982Z,46.12
2018-07-15T00:14:40.944Z,46.12
2018-07-15T00:15:40.894Z,46.22
2018-07-15T00:16:40.850Z,46.22
2018-07-15T00:17:40.806Z,46.22
2018-07-15T00:18:40.763Z,46.42
2018-07-15T00:19:40.717Z,46.42
2018-07-15T00:20:40.674Z,46.12
2018-07-15T00:21:40.629Z,46.03
2018-07-15T00:22:40.592Z,46.12
2018-07-15T00:23:40.541Z,46.42
2018-07-15T00:24:40.497Z,46.22
2018-07-15T00:25:40.456Z,46.22
2018-07-15T00:26:40.410Z,46.12
2018-07-15T00:27:40.364Z,46.12
2018-07-15T00:28:40.323Z,46.12
2018-07-15T00:29:40.276Z,46.12
2018-07-15T00:30:40.231Z,46.12
2018-07-15T00:31:40.187Z,46.12
2018-07-15T00:32:40.199Z,46.03
2018-07-15T00:33:40.132Z,46.12
2018-07-15T00:34:40.054Z,46.03
2018-07-15T00:35:40.013Z,46.03
2018-07-15T00:36:39.967Z,46.12
2018-07-15T00:37:39.922Z,45.83
2018-07-15T00:38:39.878Z,46.42
2018-07-15T00:39:39.833Z,46.12
2018-07-15T00:40:39.790Z,46.12
2018-07-15T00:41:39.745Z,46.12
2018-07-15T00:42:39.701Z,46.22
2018-07-15T00:43:39.657Z,46.32
2018-07-15T00:44:39.613Z,46.12
2018-07-15T00:45:39.568Z,46.12
2018-07-15T00:46:39.524Z,46.12
2018-07-15T00:47:39.487Z,46.42
2018-07-15T00:48:39.436Z,46.42
2018-07-15T00:49:39.391Z,46.32
2018-07-15T00:50:39.350Z,46.32
2018-07-15T00:51:39.303Z,46.32
2018-07-15T00:52:39.259Z,46.22
2018-07-15T00:53:39.214Z,46.32
2018-07-15T00:54:39.170Z,46.32
2018-07-15T00:55:39.126Z,46.42
2018-07-15T00:56:39.082Z,46.42
2018-07-15T00:57:39.042Z,46.42
2018-07-15T00:58:38.993Z,46.22
2018-07-15T00:59:38.950Z,46.32
2018-07-15T01:00:38.905Z,46.42
2018-07-15T01:01:38.866Z,46.32
2018-07-15T01:02:38.816Z,46.42
2018-07-15T01:03:38.774Z,46.32
2018-07-15T01:04:38.728Z,46.32
2018-07-15T01:05:38.684Z,46.32
2018-07-15T01:06:38.639Z,46.22
2018-07-15T01:07:38.598Z,46.32
2018-07-15T01:08:38.551Z,46.22
2018-07-15T01:09:38.505Z,46.42
2018-07-15T01:10:38.461Z,46.32
2018-07-15T01:11:38.417Z,46.32
2018-07-15T01:12:38.378Z,46.22
2018-07-15T01:13:38.378Z,46.42
2018-07-15T01:14:38.284Z,46.32
2018-07-15T01:15:38.241Z,46.22
2018-07-15T01:16:38.196Z,46.32
2018-07-15T01:17:38.152Z,46.32
2018-07-15T01:18:38.111Z,46.42
2018-07-15T01:19:38.063Z,46.22
2018-07-15T01:20:38.019Z,46.22
2018-07-15T01:21:37.978Z,46.22
2018-07-15T01:22:37.932Z,46.42
2018-07-15T01:23:37.886Z,46.12
2018-07-15T01:24:37.841Z,46.22
2018-07-15T01:25:37.796Z,46.22
2018-07-15T01:26:37.754Z,46.32
2018-07-15T01:28:37.664Z,46.22
2018-07-15T01:29:37.621Z,46.12
2018-07-15T01:30:37.578Z,46.12
2018-07-15T01:31:37.531Z,46.32
2018-07-15T01:32:37.488Z,46.32
2018-07-15T01:33:37.442Z,46.32
2018-07-15T01:34:37.398Z,46.32
2018-07-15T01:35:37.356Z,46.42
2018-07-15T01:36:37.310Z,46.22
2018-07-15T01:37:37.265Z,46.22
2018-07-15T01:38:37.221Z,46.20
2018-07-15T01:39:37.177Z,46.22
2018-07-15T01:40:37.132Z,46.42
2018-07-15T01:41:37.093Z,46.32
2018-07-15T01:42:37.044Z,46.32
2018-07-15T01:43:37.002Z,46.32
2018-07-15T01:44:36.956Z,46.32
2018-07-15T01:45:36.910Z,46.22
2018-07-15T01:46:36.866Z,46.42
2018-07-15T01:47:36.822Z,46.22
2018-07-15T01:48:36.778Z,46.22
2018-07-15T01:49:36.732Z,46.22
2018-07-15T01:50:36.688Z,46.22
2018-07-15T01:51:36.645Z,46.22
2018-07-15T01:52:36.600Z,46.32
2018-07-15T01:53:36.559Z,46.32
2018-07-15T01:54:36.511Z,46.22
2018-07-15T01:55:36.467Z,46.20
2018-07-15T01:56:36.423Z,46.39
2018-07-15T01:57:36.377Z,46.20
2018-07-15T01:58:36.334Z,46.51
2018-07-15T01:59:36.290Z,46.32
2018-07-15T02:00:36.246Z,46.39
2018-07-15T02:01:36.200Z,46.49
2018-07-15T02:02:36.156Z,46.39
2018-07-15T02:03:36.112Z,46.39
2018-07-15T02:04:36.067Z,46.49
2018-07-15T02:05:36.023Z,46.39
2018-07-15T02:06:35.978Z,46.49
2018-07-15T02:07:35.934Z,46.30
2018-07-15T02:08:35.893Z,46.58
2018-07-15T02:09:35.845Z,46.39
2018-07-15T02:11:35.756Z,46.49
2018-07-15T02:12:35.712Z,46.39
2018-07-15T02:13:35.667Z,46.30
2018-07-15T02:14:35.624Z,46.78
2018-07-15T02:15:35.579Z,46.51
2018-07-15T02:16:35.535Z,46.68
2018-07-15T02:17:35.489Z,46.68
2018-07-15T02:18:35.445Z,46.58
2018-07-15T02:19:35.401Z,46.78
2018-07-15T02:20:35.356Z,46.68
2018-07-15T02:21:35.312Z,46.68
2018-07-15T02:22:35.268Z,46.30
2018-07-15T02:23:35.223Z,46.58
2018-07-15T02:24:35.179Z,46.68
2018-07-15T02:25:35.137Z,46.78
2018-07-15T02:26:35.089Z,46.58
2018-07-15T02:27:35.045Z,46.49
2018-07-15T02:28:35.001Z,46.68
2018-07-15T02:29:34.956Z,46.88
2018-07-15T02:30:34.912Z,46.49
2018-07-15T02:31:34.868Z,46.58
2018-07-15T02:32:34.826Z,46.68
2018-07-15T02:33:34.778Z,46.97
2018-07-15T02:34:34.734Z,46.68
2018-07-15T02:35:34.690Z,46.68
2018-07-15T02:36:34.708Z,46.78
2018-07-15T02:37:34.600Z,46.78
2018-07-15T02:38:34.572Z,46.78
2018-07-15T02:39:34.513Z,46.88
2018-07-15T02:40:34.468Z,46.78
2018-07-15T02:41:34.424Z,46.88
2018-07-15T02:42:34.378Z,46.88
2018-07-15T02:43:34.346Z,47.07
2018-07-15T02:44:34.291Z,46.97
2018-07-15T02:45:34.245Z,46.88
2018-07-15T02:46:34.200Z,47.26
2018-07-15T02:47:34.162Z,46.97
2018-07-15T02:48:34.111Z,46.97
2018-07-15T02:49:34.068Z,47.07
2018-07-15T02:50:34.022Z,47.07
2018-07-15T02:51:33.979Z,47.26
2018-07-15T02:52:33.933Z,46.97
2018-07-15T02:53:33.888Z,46.97
2018-07-15T02:54:33.844Z,46.97
2018-07-15T02:55:33.800Z,46.97
2018-07-15T02:56:33.755Z,47.26
2018-07-15T02:57:33.710Z,47.36
2018-07-15T02:58:33.666Z,47.26
2018-07-15T02:59:33.621Z,47.26
2018-07-15T03:00:33.580Z,47.16
2018-07-15T03:01:33.532Z,47.26
2018-07-15T03:02:33.487Z,46.97
2018-07-15T03:03:33.443Z,47.26
2018-07-15T03:04:33.408Z,47.07
2018-07-15T03:05:33.354Z,47.07
2018-07-15T03:06:33.310Z,47.07
2018-07-15T03:07:33.265Z,47.45
2018-07-15T03:08:33.221Z,47.55
2018-07-15T03:09:33.175Z,47.36
2018-07-15T03:10:33.131Z,47.74
2018-07-15T03:11:33.088Z,47.65
2018-07-15T03:12:33.042Z,47.65
2018-07-15T03:13:32.998Z,47.74
2018-07-15T03:14:32.954Z,47.55
2018-07-15T03:15:32.909Z,47.65
2018-07-15T03:16:32.864Z,47.65
2018-07-15T03:17:32.823Z,47.55
2018-07-15T03:18:32.786Z,47.36
2018-07-15T03:19:32.730Z,47.45
2018-07-15T03:20:32.686Z,47.36
2018-07-15T03:21:32.644Z,47.36
2018-07-15T03:22:32.604Z,47.65
2018-07-15T03:23:32.553Z,47.74
2018-07-15T03:24:32.509Z,47.55
2018-07-15T03:25:32.463Z,47.45
2018-07-15T03:26:32.419Z,47.65
2018-07-15T03:27:32.447Z,47.65
2018-07-15T03:28:32.330Z,47.65
2018-07-15T03:29:32.284Z,47.45
2018-07-15T03:30:32.240Z,47.45
2018-07-15T03:31:32.196Z,47.74
2018-07-15T03:32:32.153Z,47.45
2018-07-15T03:33:32.106Z,47.84
2018-07-15T03:34:32.068Z,47.45
2018-07-15T03:35:32.020Z,47.84
2018-07-15T03:36:31.973Z,47.74
2018-07-15T03:37:31.931Z,47.84
2018-07-15T03:38:31.884Z,47.65
2018-07-15T03:39:31.841Z,47.65
2018-07-15T03:40:31.795Z,47.74
2018-07-15T03:41:31.749Z,47.74
2018-07-15T03:42:31.707Z,47.55
2018-07-15T03:43:31.666Z,47.65
2018-07-15T03:44:31.617Z,47.94
2018-07-15T03:45:31.573Z,47.84
2018-07-15T03:46:31.527Z,48.03
2018-07-15T03:47:31.483Z,47.55
2018-07-15T03:48:31.439Z,47.65
2018-07-15T03:49:31.393Z,47.74
2018-07-15T03:50:31.349Z,47.65
2018-07-15T03:51:31.304Z,47.45
2018-07-15T03:52:31.260Z,47.74
2018-07-15T03:53:31.246Z,47.45
2018-07-15T03:54:31.170Z,47.45
2018-07-15T03:55:31.126Z,47.74
2018-07-15T03:56:31.082Z,47.45
2018-07-15T03:57:31.038Z,47.65
2018-07-15T03:58:30.992Z,47.74
2018-07-15T03:59:30.952Z,48.13
2018-07-15T04:00:30.904Z,47.65
2018-07-15T04:01:30.861Z,47.65
2018-07-15T04:02:30.814Z,47.65
2018-07-15T04:03:30.771Z,47.74
2018-07-15T04:04:30.725Z,47.55
2018-07-15T04:05:30.680Z,47.36
2018-07-15T04:06:30.638Z,47.65
2018-07-15T04:07:30.591Z,47.65
2018-07-15T04:08:30.600Z,47.65
2018-07-15T04:09:30.502Z,47.55
2018-07-15T04:10:30.457Z,47.74
2018-07-15T04:11:30.413Z,47.67
2018-07-15T04:12:30.371Z,47.26
2018-07-15T04:13:30.323Z,47.67
2018-07-15T04:14:30.278Z,47.26
2018-07-15T04:15:30.234Z,47.65
2018-07-15T04:16:30.190Z,47.26
2018-07-15T04:17:30.145Z,47.65
2018-07-15T04:18:30.100Z,47.74
2018-07-15T04:19:30.056Z,47.77
2018-07-15T04:20:30.014Z,47.38
2018-07-15T04:21:29.967Z,47.55
2018-07-15T04:22:29.922Z,47.67
2018-07-15T04:23:29.878Z,47.74
2018-07-15T04:24:29.834Z,47.28
2018-07-15T04:25:29.790Z,47.09
2018-07-15T04:26:29.743Z,47.45
2018-07-15T04:27:29.699Z,47.58
2018-07-15T04:28:29.655Z,47.38
2018-07-15T04:29:29.609Z,47.16
2018-07-15T04:30:29.565Z,47.38
2018-07-15T04:31:29.521Z,47.16
2018-07-15T04:32:29.476Z,47.36
2018-07-15T04:33:29.431Z,47.19
2018-07-15T04:34:29.389Z,47.58
2018-07-15T04:35:29.343Z,47.48
2018-07-15T04:36:29.298Z,47.38
2018-07-15T04:37:29.253Z,47.58
2018-07-15T04:38:29.208Z,47.58
2018-07-15T04:39:29.164Z,47.77
2018-07-15T04:40:29.119Z,47.58
2018-07-15T04:41:29.075Z,47.58
2018-07-15T04:43:29.030Z,47.86
2018-07-15T04:44:28.943Z,47.48
2018-07-15T04:45:28.896Z,47.09
2018-07-15T04:46:28.852Z,46.90
2018-07-15T04:47:28.807Z,47.38
2018-07-15T04:48:28.763Z,47.00
2018-07-15T04:49:28.718Z,46.92
2018-07-15T04:50:28.674Z,46.63
2018-07-15T04:51:28.629Z,46.34
2018-07-15T04:52:28.585Z,46.17
2018-07-15T04:53:28.539Z,45.98
2018-07-15T04:54:28.495Z,45.81
2018-07-15T04:55:28.452Z,45.61
2018-07-15T04:56:28.407Z,45.03
2018-07-15T04:57:28.362Z,44.37
2018-07-15T04:58:28.318Z,44.18
2018-07-15T04:59:28.273Z,44.57
2018-07-15T05:00:28.229Z,43.79
2018-07-15T05:01:28.184Z,44.49
2018-07-15T05:02:28.139Z,43.62
2018-07-15T05:03:28.096Z,43.62
2018-07-15T05:04:28.051Z,43.43
2018-07-15T05:05:28.007Z,43.16
2018-07-15T05:06:27.962Z,42.86
2018-07-15T05:07:27.918Z,42.96
2018-07-15T05:08:27.874Z,42.79
2018-07-15T05:09:27.830Z,42.30
2018-07-15T05:10:27.784Z,42.21
2018-07-15T05:11:27.743Z,41.63
2018-07-15T05:12:27.697Z,41.64
2018-07-15T05:13:27.694Z,41.45
2018-07-15T05:14:27.608Z,41.55
2018-07-15T05:15:27.564Z,41.06
2018-07-15T05:16:27.520Z,40.79
2018-07-15T05:17:27.475Z,40.69
2018-07-15T05:18:27.498Z,40.79
2018-07-15T05:19:27.388Z,40.41
2018-07-15T05:20:27.344Z,40.41
2018-07-15T05:21:27.300Z,40.33
2018-07-15T05:22:27.255Z,40.13
2018-07-15T05:23:27.211Z,40.03
2018-07-15T05:24:27.168Z,39.84
2018-07-15T05:25:27.123Z,39.55
2018-07-15T05:26:27.080Z,39.47
2018-07-15T05:27:27.036Z,39.28
2018-07-15T05:28:26.992Z,39.18
2018-07-15T05:29:26.950Z,38.98
2018-07-15T05:30:26.903Z,38.71
2018-07-15T05:31:26.860Z,38.62
2018-07-15T05:32:26.816Z,38.23
2018-07-15T05:33:26.772Z,38.13
2018-07-15T05:34:26.731Z,38.24
2018-07-15T05:35:26.689Z,37.76
2018-07-15T05:36:26.641Z,37.66
2018-07-15T05:37:26.597Z,37.56
2018-07-15T05:38:26.604Z,37.68
2018-07-15T05:39:26.510Z,37.68
2018-07-15T05:40:26.467Z,37.29
2018-07-15T05:41:26.422Z,37.00
2018-07-15T05:42:26.379Z,37.00
2018-07-15T05:43:26.339Z,36.80
2018-07-15T05:44:26.293Z,36.63
2018-07-15T05:45:26.248Z,36.72
2018-07-15T05:46:26.205Z,36.92
2018-07-15T05:47:26.161Z,36.72
2018-07-15T05:48:26.118Z,36.63
2018-07-15T05:49:26.074Z,36.53
2018-07-15T05:50:26.031Z,36.45
2018-07-15T05:51:25.993Z,36.16
2018-07-15T05:52:25.949Z,36.06
2018-07-15T05:53:25.901Z,36.16
2018-07-15T05:54:25.857Z,35.28
2018-07-15T05:55:25.814Z,35.49
2018-07-15T05:56:25.771Z,35.49
2018-07-15T05:57:25.727Z,35.49
2018-07-15T05:58:25.684Z,35.20
2018-07-15T05:59:25.642Z,35.30
2018-07-15T06:00:25.598Z,35.20
2018-07-15T06:01:25.555Z,34.92
2018-07-15T06:02:25.512Z,35.02
2018-07-15T06:03:25.527Z,34.63
2018-07-15T06:04:25.434Z,34.63
2018-07-15T06:05:25.381Z,34.53
2018-07-15T06:06:25.340Z,34.44
2018-07-15T06:07:25.297Z,34.34
2018-07-15T06:08:25.253Z,34.34
2018-07-15T06:09:25.210Z,34.06
2018-07-15T06:10:25.167Z,33.87
2018-07-15T06:11:25.125Z,33.97
2018-07-15T06:12:25.082Z,33.77
2018-07-15T06:13:25.038Z,33.67
2018-07-15T06:14:24.995Z,33.58
2018-07-15T06:15:24.953Z,33.38
2018-07-15T06:16:24.911Z,33.58
2018-07-15T06:17:24.866Z,33.30
2018-07-15T06:18:24.826Z,32.99
2018-07-15T06:19:24.781Z,33.38
2018-07-15T06:20:24.739Z,33.28
2018-07-15T06:21:24.695Z,33.20
2018-07-15T06:22:24.652Z,33.11
2018-07-15T06:23:24.613Z,33.11
2018-07-15T06:24:24.568Z,33.01
2018-07-15T06:25:24.524Z,33.11
2018-07-15T06:26:24.486Z,32.91
2018-07-15T06:27:24.451Z,32.91
2018-07-15T06:28:24.396Z,32.71
2018-07-15T06:29:24.356Z,32.71
2018-07-15T06:30:24.311Z,32.81
2018-07-15T06:31:24.274Z,32.52
2018-07-15T06:32:24.226Z,32.42
2018-07-15T06:33:24.182Z,32.62
2018-07-15T06:34:24.140Z,32.42
2018-07-15T06:35:24.097Z,32.42
2018-07-15T06:36:24.056Z,32.32
2018-07-15T06:37:24.013Z,32.14
2018-07-15T06:38:23.970Z,32.43
2018-07-15T06:39:23.927Z,32.42
2018-07-15T06:40:23.885Z,32.14
2018-07-15T06:41:23.852Z,32.34
2018-07-15T06:42:23.802Z,32.24
2018-07-15T06:43:23.757Z,31.85
2018-07-15T06:44:23.719Z,31.95
2018-07-15T06:45:23.774Z,31.85
2018-07-15T06:46:23.630Z,31.65
2018-07-15T06:47:23.589Z,31.56
2018-07-15T06:48:23.545Z,31.46
2018-07-15T06:49:23.558Z,31.18
2018-07-15T06:50:23.461Z,31.48
2018-07-15T06:51:23.418Z,31.67
2018-07-15T06:52:23.375Z,31.77
2018-07-15T06:53:23.332Z,31.67
2018-07-15T06:54:23.290Z,31.77
2018-07-15T06:55:23.249Z,31.18
2018-07-15T06:56:23.207Z,31.48
2018-07-15T06:57:23.163Z,31.48
2018-07-15T06:58:23.121Z,31.48
2018-07-15T06:59:23.079Z,31.38
2018-07-15T07:00:23.037Z,31.29
2018-07-15T07:01:23.043Z,31.10
2018-07-15T07:02:22.955Z,30.32
2018-07-15T07:03:22.911Z,30.71
2018-07-15T07:04:22.868Z,30.22
2018-07-15T07:05:22.825Z,30.41
2018-07-15T07:06:22.783Z,30.52
2018-07-15T07:07:22.907Z,30.43
2018-07-15T07:08:22.699Z,30.13
2018-07-15T07:09:22.657Z,30.23
2018-07-15T07:10:22.614Z,29.94
2018-07-15T07:11:22.576Z,29.85
2018-07-15T07:12:22.530Z,29.27
2018-07-15T07:13:22.494Z,29.17
2018-07-15T07:14:22.447Z,29.18
2018-07-15T07:15:22.404Z,29.08
2018-07-15T07:16:22.367Z,28.71
2018-07-15T07:17:22.319Z,28.41
2018-07-15T07:18:22.276Z,27.63
2018-07-15T07:19:22.235Z,27.94
2018-07-15T07:20:22.194Z,27.46
2018-07-15T07:21:22.151Z,27.75
2018-07-15T07:22:22.108Z,27.08
2018-07-15T07:23:22.067Z,26.69
2018-07-15T07:24:22.025Z,26.50
2018-07-15T07:25:21.982Z,26.79
2018-07-15T07:26:21.940Z,26.97
2018-07-15T07:27:21.899Z,27.45
2018-07-15T07:28:21.857Z,27.35
2018-07-15T07:29:21.815Z,27.64
2018-07-15T07:30:21.773Z,26.87
2018-07-15T07:31:21.731Z,26.89
2018-07-15T07:32:21.690Z,26.51
2018-07-15T07:33:21.646Z,25.92
2018-07-15T07:34:21.608Z,25.83
2018-07-15T07:35:21.568Z,25.35
2018-07-15T07:36:21.522Z,25.17
2018-07-15T07:37:21.479Z,25.17
2018-07-15T07:38:21.437Z,24.48
2018-07-15T07:39:21.396Z,24.48
2018-07-15T07:40:21.354Z,24.00
2018-07-15T07:41:21.423Z,23.82
2018-07-15T07:42:21.270Z,23.73
2018-07-15T07:43:21.229Z,23.43
2018-07-15T07:44:21.187Z,22.95
2018-07-15T07:45:21.146Z,23.05
2018-07-15T07:46:21.103Z,22.75
2018-07-15T07:47:21.064Z,22.47
2018-07-15T07:48:21.025Z,22.77
2018-07-15T07:49:20.985Z,22.47
2018-07-15T07:50:20.937Z,22.28
2018-07-15T07:51:20.895Z,21.98
2018-07-15T07:52:20.854Z,21.59
2018-07-15T07:53:20.849Z,21.69
2018-07-15T07:54:20.770Z,21.50
2018-07-15T07:55:20.740Z,21.21
2018-07-15T07:56:20.693Z,21.31
2018-07-15T07:57:20.646Z,21.22
2018-07-15T07:58:20.605Z,21.12
2018-07-15T07:59:20.563Z,20.64
2018-07-15T08:00:20.522Z,20.73
2018-07-15T08:01:20.483Z,20.34
2018-07-15T08:02:20.439Z,20.34
2018-07-15T08:03:20.398Z,20.34
2018-07-15T08:04:20.357Z,20.06
2018-07-15T08:05:20.315Z,20.25
2018-07-15T08:06:20.274Z,20.15
2018-07-15T08:07:20.232Z,19.95
2018-07-15T08:08:20.194Z,19.85
2018-07-15T08:09:20.151Z,19.85
2018-07-15T08:10:20.110Z,20.06
2018-07-15T08:11:20.070Z,20.06
2018-07-15T08:12:20.028Z,19.37
2018-07-15T08:13:19.986Z,19.38
2018-07-15T08:14:19.946Z,19.28
2018-07-15T08:15:19.927Z,18.99
2018-07-15T08:16:19.865Z,19.09
2018-07-15T08:17:19.830Z,19.09
2018-07-15T08:18:19.783Z,19.29
2018-07-15T08:19:19.748Z,18.80
2018-07-15T08:20:19.702Z,18.90
2018-07-15T08:21:19.663Z,18.80
2018-07-15T08:22:19.620Z,18.60
2018-07-15T08:23:19.581Z,18.60
2018-07-15T08:24:19.541Z,18.61
2018-07-15T08:25:19.498Z,18.41
2018-07-15T08:26:19.458Z,18.61
2018-07-15T08:27:19.418Z,18.71
2018-07-15T08:28:19.491Z,18.31
2018-07-15T08:29:19.336Z,18.71
2018-07-15T08:30:19.296Z,18.41
2018-07-15T08:31:19.257Z,18.71
2018-07-15T08:32:19.217Z,18.71
2018-07-15T08:33:19.175Z,18.41
2018-07-15T08:34:19.136Z,18.41
2018-07-15T08:35:19.096Z,18.12
2018-07-15T08:36:19.059Z,18.22
2018-07-15T08:37:19.017Z,17.72
2018-07-15T08:38:19.026Z,17.72
2018-07-15T08:39:18.936Z,17.82
2018-07-15T08:40:18.897Z,17.93
2018-07-15T08:41:18.857Z,17.61
2018-07-15T08:42:18.818Z,18.39
2018-07-15T08:43:18.777Z,19.45
2018-07-15T08:44:18.737Z,20.72
2018-07-15T08:45:18.696Z,20.61
2018-07-15T08:46:18.657Z,20.89
2018-07-15T08:47:18.627Z,21.28
2018-07-15T08:48:18.578Z,21.28
2018-07-15T08:49:18.538Z,20.99
2018-07-15T08:50:18.505Z,21.09
2018-07-15T08:51:18.459Z,20.80
2018-07-15T08:52:18.418Z,20.80
2018-07-15T08:53:18.379Z,21.08
2018-07-15T08:54:18.339Z,21.46
2018-07-15T08:55:18.302Z,21.46
2018-07-15T08:56:18.260Z,21.47
2018-07-15T08:57:18.222Z,21.20
2018-07-15T08:58:18.180Z,20.31
2018-07-15T08:59:18.140Z,20.52
2018-07-15T09:00:18.101Z,19.93
2018-07-15T09:01:18.061Z,20.04
2018-07-15T09:02:18.022Z,20.04
2018-07-15T09:03:18.044Z,19.36
2018-07-15T09:04:17.943Z,19.46
2018-07-15T09:05:17.903Z,19.17
2018-07-15T09:06:17.866Z,19.26
2018-07-15T09:07:17.825Z,19.07
2018-07-15T09:08:17.786Z,19.36
2018-07-15T09:09:17.746Z,19.07
2018-07-15T09:10:17.708Z,18.97
2018-07-15T09:11:17.668Z,19.07
2018-07-15T09:12:17.630Z,19.26
2018-07-15T09:13:17.590Z,19.26
2018-07-15T09:14:17.551Z,19.45
2018-07-15T09:15:17.513Z,19.45
2018-07-15T09:16:17.474Z,19.35
2018-07-15T09:17:17.434Z,19.65
2018-07-15T09:18:17.401Z,19.55
2018-07-15T09:19:17.359Z,19.35
2018-07-15T09:20:17.318Z,19.45
2018-07-15T09:21:17.280Z,19.74
2018-07-15T09:22:17.240Z,20.03
2018-07-15T09:23:17.203Z,20.23
2018-07-15T09:24:17.163Z,20.14
2018-07-15T09:25:17.124Z,19.82
2018-07-15T09:26:17.085Z,20.03
2018-07-15T09:27:17.048Z,19.93
2018-07-15T09:28:17.012Z,20.32
2018-07-15T09:29:16.970Z,20.42
2018-07-15T09:30:16.932Z,20.01
2018-07-15T09:31:16.893Z,20.60
2018-07-15T09:32:16.854Z,21.08
2018-07-15T09:33:16.814Z,21.65
2018-07-15T09:34:16.776Z,22.31
2018-07-15T09:35:16.751Z,23.19
2018-07-15T09:36:16.698Z,23.46
2018-07-15T09:37:16.659Z,23.94
2018-07-15T09:38:16.620Z,24.81
2018-07-15T09:39:16.581Z,25.18
2018-07-15T09:40:16.547Z,24.98
2018-07-15T09:41:16.503Z,25.95
2018-07-15T09:42:16.463Z,25.95
2018-07-15T09:43:16.424Z,26.43
2018-07-15T09:44:16.385Z,26.53
2018-07-15T09:45:16.345Z,26.81
2018-07-15T09:46:16.306Z,26.90
2018-07-15T09:47:16.267Z,27.29
2018-07-15T09:48:16.230Z,27.48
2018-07-15T09:49:16.186Z,27.86
2018-07-15T09:50:16.148Z,28.05
2018-07-15T09:51:16.108Z,28.54
2018-07-15T09:52:16.119Z,28.82
2018-07-15T09:53:16.029Z,29.11
2018-07-15T09:54:15.989Z,28.91
2018-07-15T09:55:15.950Z,29.59
2018-07-15T09:56:15.912Z,29.57
2018-07-15T09:57:15.870Z,30.16
2018-07-15T09:58:15.862Z,30.06
2018-07-15T09:59:15.791Z,30.24
2018-07-15T10:00:15.754Z,30.63
2018-07-15T10:01:15.711Z,30.83
2018-07-15T10:02:15.671Z,30.83
2018-07-15T10:03:15.631Z,31.41
2018-07-15T10:04:15.594Z,31.12
2018-07-15T10:05:15.550Z,31.31
2018-07-15T10:06:15.510Z,31.59
2018-07-15T10:07:15.469Z,31.10
2018-07-15T10:08:15.430Z,31.69
2018-07-15T10:09:15.388Z,31.98
2018-07-15T10:10:15.348Z,32.06
2018-07-15T10:11:15.308Z,32.35
2018-07-15T10:12:15.268Z,32.16
2018-07-15T10:13:15.227Z,32.35
2018-07-15T10:14:15.186Z,32.45
2018-07-15T10:15:15.146Z,32.92
2018-07-15T10:16:15.107Z,32.94
2018-07-15T10:17:15.065Z,33.12
2018-07-15T10:18:15.024Z,33.12
2018-07-15T10:19:14.985Z,32.92
2018-07-15T10:20:14.943Z,32.82
2018-07-15T10:21:14.902Z,33.02
2018-07-15T10:22:14.861Z,33.49
2018-07-15T10:23:14.820Z,33.69
2018-07-15T10:24:14.779Z,33.29
2018-07-15T10:25:14.738Z,33.39
2018-07-15T10:26:14.697Z,33.59
2018-07-15T10:27:14.657Z,33.59
2018-07-15T10:28:14.616Z,33.59
2018-07-15T10:29:14.574Z,33.98
2018-07-15T10:30:14.534Z,33.98
2018-07-15T10:31:14.493Z,33.88
2018-07-15T10:32:14.455Z,33.98
2018-07-15T10:33:14.469Z,33.98
2018-07-15T10:34:14.370Z,33.69
2018-07-15T10:35:14.338Z,33.98
2018-07-15T10:37:14.247Z,33.78
2018-07-15T10:38:14.206Z,34.08
2018-07-15T10:39:14.179Z,33.88
2018-07-15T10:40:14.125Z,33.69
2018-07-15T10:41:14.083Z,33.59
2018-07-15T10:42:14.043Z,33.98
2018-07-15T10:43:14.001Z,33.78
2018-07-15T10:44:13.960Z,33.96
2018-07-15T10:45:13.918Z,34.16
2018-07-15T10:46:13.878Z,34.45
2018-07-15T10:47:13.837Z,33.96
2018-07-15T10:48:13.795Z,34.06
2018-07-15T10:49:13.754Z,34.25
2018-07-15T10:50:13.713Z,34.35
2018-07-15T10:51:13.672Z,34.16
2018-07-15T10:52:13.631Z,34.16
2018-07-15T10:53:13.589Z,34.35
2018-07-15T10:54:13.548Z,34.25
2018-07-15T10:55:13.507Z,34.25
2018-07-15T10:56:13.469Z,34.37
2018-07-15T10:57:13.430Z,34.25
2018-07-15T10:58:13.383Z,34.45
2018-07-15T10:59:13.342Z,34.47
2018-07-15T11:00:13.301Z,34.16
2018-07-15T11:01:13.260Z,34.27
2018-07-15T11:02:13.221Z,34.27
2018-07-15T11:03:13.178Z,34.27
2018-07-15T11:04:13.137Z,34.17
2018-07-15T11:05:13.095Z,34.27
2018-07-15T11:06:13.079Z,34.45
2018-07-15T11:07:13.013Z,34.35
2018-07-15T11:08:12.972Z,34.35
2018-07-15T11:09:12.930Z,34.25
2018-07-15T11:10:12.889Z,34.35
2018-07-15T11:11:12.848Z,34.74
2018-07-15T11:12:12.807Z,34.74
2018-07-15T11:13:12.785Z,34.64
2018-07-15T11:14:12.723Z,34.84
2018-07-15T11:15:12.683Z,34.74
2018-07-15T11:16:12.641Z,34.55
2018-07-15T11:17:12.600Z,34.64
2018-07-15T11:18:12.559Z,34.92
2018-07-15T11:19:12.517Z,35.11
2018-07-15T11:20:12.476Z,34.94
2018-07-15T11:21:12.434Z,34.94
2018-07-15T11:22:12.393Z,34.92
2018-07-15T11:23:12.352Z,35.03
2018-07-15T11:24:12.311Z,34.94
2018-07-15T11:25:12.269Z,34.94
2018-07-15T11:26:12.302Z,34.84
2018-07-15T11:27:12.187Z,35.13
2018-07-15T11:28:12.149Z,35.03
2018-07-15T11:29:12.104Z,35.03
2018-07-15T11:30:12.065Z,34.94
2018-07-15T11:31:12.074Z,34.94
2018-07-15T11:32:11.981Z,34.74
2018-07-15T11:33:11.939Z,35.03
2018-07-15T11:34:11.900Z,35.13
2018-07-15T11:35:11.856Z,34.94
2018-07-15T11:36:11.815Z,34.94
2018-07-15T11:37:11.774Z,35.03
2018-07-15T11:38:11.732Z,35.13
2018-07-15T11:39:11.779Z,34.94
2018-07-15T11:40:11.651Z,35.23
2018-07-15T11:41:11.608Z,35.02
2018-07-15T11:42:11.567Z,35.21
2018-07-15T11:43:11.529Z,35.02
2018-07-15T11:44:11.488Z,35.03
2018-07-15T11:45:11.443Z,35.13
2018-07-15T11:46:11.401Z,35.02
2018-07-15T11:47:11.366Z,35.13
2018-07-15T11:48:11.384Z,35.21
2018-07-15T11:49:11.277Z,35.23
2018-07-15T11:50:11.236Z,35.13
2018-07-15T11:51:11.195Z,35.02
2018-07-15T11:52:11.158Z,34.94
2018-07-15T11:53:11.111Z,35.13
2018-07-15T11:54:11.070Z,34.94
2018-07-15T11:55:11.029Z,34.92
2018-07-15T11:56:10.988Z,35.03
2018-07-15T11:57:10.946Z,35.03
2018-07-15T11:58:10.905Z,34.94
2018-07-15T11:59:10.864Z,34.94
2018-07-15T12:00:10.823Z,35.13
2018-07-15T12:01:10.780Z,34.92
2018-07-15T12:02:10.739Z,35.23
2018-07-15T12:03:10.697Z,35.03
2018-07-15T12:04:10.657Z,35.11
2018-07-15T12:05:10.614Z,35.13
2018-07-15T12:06:10.624Z,35.03
2018-07-15T12:07:10.535Z,35.02
2018-07-15T12:08:10.491Z,35.21
2018-07-15T12:09:10.449Z,35.21
2018-07-15T12:10:10.414Z,35.21
2018-07-15T12:11:10.531Z,35.11
2018-07-15T12:12:10.325Z,35.11
2018-07-15T12:13:10.283Z,35.41
2018-07-15T12:14:10.241Z,35.11
2018-07-15T12:15:10.205Z,35.41
2018-07-15T12:16:10.160Z,35.31
2018-07-15T12:17:10.117Z,35.50
2018-07-15T12:18:10.076Z,35.50
2018-07-15T12:19:10.038Z,35.31
2018-07-15T12:20:09.994Z,35.50
2018-07-15T12:21:09.951Z,35.41
2018-07-15T12:22:09.910Z,35.31
2018-07-15T12:23:09.869Z,35.52
2018-07-15T12:24:09.827Z,35.41
2018-07-15T12:25:09.785Z,35.31
2018-07-15T12:26:09.744Z,35.31
2018-07-15T12:27:09.705Z,35.31
2018-07-15T12:28:09.710Z,35.41
2018-07-15T12:29:09.619Z,35.41
2018-07-15T12:30:09.578Z,35.50
2018-07-15T12:31:09.537Z,35.50
2018-07-15T12:32:09.495Z,35.41
2018-07-15T12:33:09.453Z,35.50
2018-07-15T12:34:09.415Z,35.41
2018-07-15T12:35:09.371Z,35.31
2018-07-15T12:36:09.329Z,35.41
2018-07-15T12:37:09.287Z,35.41
2018-07-15T12:38:09.246Z,35.60
2018-07-15T12:39:09.205Z,35.31
2018-07-15T12:40:09.164Z,35.41
2018-07-15T12:41:09.121Z,35.21
2018-07-15T12:42:09.080Z,35.88
2018-07-15T12:43:09.043Z,35.78
2018-07-15T12:44:08.997Z,35.88
2018-07-15T12:45:08.956Z,35.78
2018-07-15T12:46:08.914Z,35.68
2018-07-15T12:47:08.873Z,35.78
2018-07-15T12:48:08.831Z,36.07
2018-07-15T12:49:08.790Z,35.89
2018-07-15T12:50:08.748Z,35.78
2018-07-15T12:51:08.706Z,35.88
2018-07-15T12:52:08.668Z,35.97
2018-07-15T12:53:08.623Z,36.16
2018-07-15T12:54:08.583Z,36.16
2018-07-15T12:55:08.540Z,36.07
2018-07-15T12:56:08.499Z,36.07